METAR AND TAF INFORMATION

METAR FOR LPMA
ADDS - METARS form results

(1604 UTC 21 November 2019)
Data provider http://aviationweather.gov/metar/data/
 
METAR text: LPMA 211600Z 35017KT 9999 FEW014 22/15 Q1011
Conditions at: LPMA (FUNCHAL/MADEIRA , PT) observed 1600 UTC 21 November 2019
Temperature: 22.0°C (72°F)
Dewpoint: 15.0°C (59°F) [RH = 65%]
Pressure (altimeter): 29.85 inches Hg (1011.0 mb)
Winds: from the N (350 degrees) at 20 MPH (17 knots; 8.7 m/s)
Visibility: 6 or more miles (10+ km)
Ceiling: at least 12,000 feet AGL
Clouds: few clouds at 1400 feet AGL
Weather: no significant weather observed at this time

METAR text: LPMA 211530Z 36016KT 9999 FEW014 22/16 Q1010
Conditions at: LPMA (FUNCHAL/MADEIRA , PT) observed 1530 UTC 21 November 2019
Temperature: 22.0°C (72°F)
Dewpoint: 16.0°C (61°F) [RH = 69%]
Pressure (altimeter): 29.82 inches Hg (1010.0 mb)
Winds: from the N (360 degrees) at 18 MPH (16 knots; 8.2 m/s)
Visibility: 6 or more miles (10+ km)
Ceiling: at least 12,000 feet AGL
Clouds: few clouds at 1400 feet AGL
Weather: no significant weather observed at this time

Forecast for: AMD
Text: TAF AMD LPMA 211505Z 2115/2212 36017KT 9999 SCT015 SCT030
Forecast period: 1500 to 1600 UTC 21 November 2019
Forecast type: FROM: standard forecast or significant change
Winds: from the N (360 degrees) at 20 MPH (17 knots; 8.7 m/s)
Visibility: 6 or more miles 10+ km)
Ceiling: at least 12,000 feet AGL
Clouds: scattered clouds at 1500 feet AGL
scattered clouds at 3000 feet AGL
Weather: no significant weather forecast for this period
Text: BECMG 2116/2118 VRB05KT
Forecast period: 1600 UTC 21 November 2019 to 1200 UTC 22 November 2019
Forecast type: BECOMING: Conditions expected to become as follows by 1800 UTC 21 November 2019
Winds: variable direction winds at 6 MPH (5 knots; 2.6 m/s)
Visibility: 6 or more miles 10+ km)
Ceiling: at least 12,000 feet AGL
Clouds: scattered clouds at 1500 feet AGL
scattered clouds at 3000 feet AGL
Weather: no significant weather forecast for this period
Text: TEMPO 2117/2212 18008KT BKN015
Forecast period: 1700 UTC 21 November 2019 to 1200 UTC 22 November 2019
Forecast type: TEMPORARY: The following changes expected for less than half the time period
Winds: from the S (180 degrees) at 9 MPH (8 knots; 4.1 m/s)
Visibility: missing
Ceiling: 1500 feet AGL
Clouds: broken clouds at 1500 feet AGL
Weather: no significant weather forecast for this period

 AIRPORT MAP

 RUNWAY INFORMATION

Runway 05 Runway length 9110 ft Runway width 148 ft
Runway elevation 147 ft Runway displaced threshold 480 ft Runway heading 45
Runway 23 Runway length 9110 ft Runway width 148 ft
Runway elevation 192 ft Runway displaced threshold 490 ft Runway heading 225

 AIRPORT FREQUENCIES

Type APP Name APP Frequency 119.2 MHZ
Type TWR Name TWR Frequency 118.35 MHZ

 AIRPORT NEAR NAVIGATION AIDS

Type VOR-DME Name Madeira Frequency 112200 KHZ
Type NDB Name Madeira Frequency 318 KHZ